Terminal Aerodrome Forecast
Issued by NWS Sterling, VA

Home | Current Version | Previous Version | Text Only | Print | Product List | Glossary On
Versions: 1 2 3 4 5 6 7 8 9 10 11 12 13 14 15 16
000
FTUS41 KLWX 222000 AAA
TAFCHO
TAF AMD
KCHO 222038Z 2221/2318 36006KT 1SM BR BKN003 OVC013
     FM222300 01004KT 3SM BR SCT008 OVC015
     FM230000 01004KT 3SM BR OVC008
     FM230500 00000KT 3SM -RA BR OVC008
     FM230900 VRB03KT 3SM -RA BR OVC003
     FM231100 00000KT 3SM -DZ BR OVC003
     FM231500 00000KT 3SM -DZ BR OVC008=

USA.gov is the U.S. government's official web portal to all federal, state and local government web resources and services.